Time;durP1;ratioP1;P1;durP2;ratioP2;P2;SDS_P1;SDS_P2;PMS_P1;PMS_P2;Temp;Humidity;BMP_temperature;BMP_pressure;BME280_temperature;BME280_humidity;BME280_pressure;Samples;Min_cycle;Max_cycle;Signal;HPM_P1;HPM_P2
2022/01/21 00:02:08;;;;;;;524.47;60.77;;;1.10;99.90;;;;;;6224689;23;20749;-80
2022/01/21 00:04:36;;;;;;;552.07;60.17;;;1.10;99.90;;;;;;6225360;23;20449;-80
2022/01/21 00:07:06;;;;;;;1579.10;135.10;;;1.10;99.90;;;;;;6224359;23;20494;-80
2022/01/21 00:09:40;;;;;;;439.53;70.43;;;1.10;99.90;;;;;;6224867;23;20411;-79
2022/01/21 00:12:12;;;;;;;711.83;63.93;;;1.10;99.90;;;;;;6236971;23;20413;-79
2022/01/21 00:14:40;;;;;;;663.43;83.63;;;1.10;99.90;;;;;;6225100;23;20498;-80
2022/01/21 00:17:09;;;;;;;297.10;17.80;;;1.10;99.90;;;;;;6225226;23;20462;-80
2022/01/21 00:19:41;;;;;;;263.27;47.87;;;1.10;99.90;;;;;;6225082;23;20415;-82
2022/01/21 00:30:30;;;;;;;641.17;102.97;;;1.00;99.90;;;;;;6225758;23;20500;-80
2022/01/21 00:32:59;;;;;;;410.83;79.20;;;1.00;99.90;;;;;;6223733;23;20414;-80
2022/01/21 00:35:27;;;;;;;1094.40;111.10;;;1.10;99.90;;;;;;6224585;23;20419;-80
2022/01/21 00:37:55;;;;;;;390.57;48.77;;;1.10;99.90;;;;;;6235392;23;20414;-80
2022/01/21 00:40:26;;;;;;;205.97;12.10;;;1.10;99.90;;;;;;6224941;23;20411;-79
2022/01/21 00:43:14;;;;;;;678.70;96.70;;;1.10;99.90;;;;;;6224513;23;20443;-80
2022/01/21 00:45:44;;;;;;;401.70;42.63;;;1.10;99.90;;;;;;6223495;23;20469;-80
2022/01/21 00:48:19;;;;;;;504.37;106.53;;;1.10;99.90;;;;;;6223730;23;20407;-80
2022/01/21 00:50:47;;;;;;;144.57;11.10;;;1.10;99.90;;;;;;6224520;23;20699;-80
2022/01/21 00:53:17;;;;;;;613.87;70.17;;;1.10;99.90;;;;;;6224745;23;20902;-80
2022/01/21 00:55:45;;;;;;;677.80;68.37;;;1.10;99.90;;;;;;6224111;23;20462;-80
2022/01/21 00:58:15;;;;;;;1140.23;95.20;;;1.10;99.90;;;;;;6223732;23;20442;-82
2022/01/21 01:00:44;;;;;;;472.53;41.40;;;1.10;99.90;;;;;;6222938;23;20410;-80
2022/01/21 01:03:15;;;;;;;423.30;41.43;;;1.10;99.90;;;;;;6223838;23;20822;-80
2022/01/21 01:05:46;;;;;;;412.83;68.53;;;1.10;99.90;;;;;;6223061;23;20440;-80
2022/01/21 01:08:14;;;;;;;1174.03;127.70;;;1.10;99.90;;;;;;6222904;23;20423;-80
2022/01/21 01:10:58;;;;;;;593.07;71.60;;;1.10;99.90;;;;;;6236420;23;20399;-80
2022/01/21 01:21:54;;;;;;;198.73;17.67;;;1.10;99.90;;;;;;6224694;23;20442;-80
2022/01/21 01:29:55;;;;;;;440.17;67.77;;;1.10;99.90;;;;;;6225205;23;20700;-80
2022/01/21 01:32:24;;;;;;;559.83;66.07;;;1.10;99.90;;;;;;6225015;23;20411;-80
2022/01/21 01:34:52;;;;;;;374.13;42.80;;;1.10;99.90;;;;;;6224265;23;20438;-80
2022/01/21 01:37:35;;;;;;;1215.67;103.47;;;1.10;99.90;;;;;;6223861;23;20442;-80
2022/01/21 01:40:16;;;;;;;760.27;61.03;;;1.20;99.90;;;;;;6224437;23;20399;-80
2022/01/21 01:51:21;;;;;;;499.90;68.13;;;1.20;99.90;;;;;;6225647;23;21036;-80
2022/01/21 01:53:53;;;;;;;545.33;81.03;;;1.20;99.90;;;;;;6226723;23;20408;-80
2022/01/21 01:56:26;;;;;;;485.83;83.00;;;1.20;99.90;;;;;;6226412;23;20938;-80
2022/01/21 01:58:56;;;;;;;789.30;96.43;;;1.20;99.90;;;;;;6225619;23;20418;-80
2022/01/21 02:01:27;;;;;;;581.30;46.27;;;1.20;99.90;;;;;;6225654;23;20417;-80
2022/01/21 02:03:56;;;;;;;450.33;46.63;;;1.30;99.90;;;;;;6227674;23;20437;-80
2022/01/21 02:06:29;;;;;;;85.90;18.20;;;1.20;99.90;;;;;;6225892;23;20497;-80
2022/01/21 02:08:58;;;;;;;123.20;23.83;;;1.20;99.90;;;;;;6225244;23;20490;-80
2022/01/21 02:11:26;;;;;;;1143.03;140.47;;;1.30;99.90;;;;;;6226113;23;20442;-80
2022/01/21 02:13:59;;;;;;;438.30;38.30;;;1.30;99.90;;;;;;6225399;23;20445;-80
2022/01/21 02:16:39;;;;;;;1499.77;166.80;;;1.30;99.90;;;;;;6225322;23;20434;-80
2022/01/21 02:21:56;;;;;;;913.97;103.73;;;1.40;99.90;;;;;;6228272;23;20441;-80
2022/01/21 02:24:32;;;;;;;1253.43;95.37;;;1.40;99.90;;;;;;6225145;23;20510;-80
2022/01/21 02:27:01;;;;;;;441.90;56.43;;;1.40;99.90;;;;;;6225702;23;20437;-80
2022/01/21 02:29:44;;;;;;;135.50;17.17;;;1.50;99.90;;;;;;6225615;23;20402;-80
2022/01/21 02:32:22;;;;;;;242.27;17.87;;;1.50;99.90;;;;;;6224851;23;20446;-80
2022/01/21 02:34:50;;;;;;;188.83;31.70;;;1.50;99.90;;;;;;6226684;23;20422;-80
2022/01/21 02:37:22;;;;;;;720.03;92.73;;;1.50;99.90;;;;;;6237567;23;20497;-80
2022/01/21 02:39:51;;;;;;;202.00;32.87;;;1.50;99.90;;;;;;6226361;23;20497;-80
2022/01/21 02:42:22;;;;;;;802.90;132.27;;;1.50;99.90;;;;;;6225789;23;20756;-80
2022/01/21 02:44:50;;;;;;;883.87;83.50;;;1.50;99.90;;;;;;6227076;23;20505;-80
2022/01/21 02:47:18;;;;;;;1076.97;108.20;;;1.60;99.90;;;;;;6224951;23;20446;-80
2022/01/21 02:49:54;;;;;;;913.73;83.00;;;1.60;99.90;;;;;;6226360;23;20486;-80
2022/01/21 02:53:12;;;;;;;790.23;130.80;;;1.60;99.90;;;;;;6174927;23;20496;-81
2022/01/21 02:55:40;;;;;;;970.10;94.50;;;1.60;99.90;;;;;;6139848;23;20443;-80
2022/01/21 02:58:08;;;;;;;1117.67;110.57;;;1.60;99.90;;;;;;6139401;23;20739;-80
2022/01/21 03:00:37;;;;;;;317.70;47.00;;;1.60;99.90;;;;;;6140545;23;20425;-80
2022/01/21 03:03:07;;;;;;;989.17;90.97;;;1.60;99.90;;;;;;6139602;23;20474;-80
2022/01/21 03:05:36;;;;;;;193.17;29.47;;;1.70;99.90;;;;;;6174906;23;20430;-80
2022/01/21 03:08:09;;;;;;;455.73;59.33;;;1.70;99.90;;;;;;6148943;23;20550;-80
2022/01/21 03:10:39;;;;;;;750.20;68.07;;;1.70;99.90;;;;;;6224159;23;20415;-80
2022/01/21 03:13:09;;;;;;;545.00;74.63;;;1.70;99.90;;;;;;6225522;23;20482;-79
2022/01/21 03:15:37;;;;;;;1155.77;108.13;;;1.70;99.90;;;;;;6225377;23;20463;-80
2022/01/21 03:18:06;;;;;;;275.93;44.07;;;1.70;99.90;;;;;;6225570;23;20425;-80
2022/01/21 03:20:34;;;;;;;465.73;69.27;;;1.70;99.90;;;;;;6225876;23;20415;-80
2022/01/21 03:23:03;;;;;;;259.53;47.37;;;1.70;99.90;;;;;;6224711;23;20464;-80
2022/01/21 03:25:32;;;;;;;539.40;55.67;;;1.70;99.90;;;;;;6224598;23;20427;-80
2022/01/21 03:28:03;;;;;;;701.90;79.40;;;1.70;99.90;;;;;;6224734;23;20533;-80
2022/01/21 03:30:56;;;;;;;1160.67;116.97;;;1.70;99.90;;;;;;6225099;23;20435;-80
2022/01/21 03:33:26;;;;;;;1115.00;114.60;;;1.70;99.90;;;;;;6225148;23;20415;-79
2022/01/21 03:36:02;;;;;;;413.97;45.00;;;1.70;99.90;;;;;;6238484;23;20514;-80
2022/01/21 03:38:30;;;;;;;491.63;55.67;;;1.80;99.90;;;;;;6225896;23;20435;-80
2022/01/21 03:41:00;;;;;;;417.80;55.03;;;1.70;99.90;;;;;;6223900;23;20764;-80
2022/01/21 03:43:29;;;;;;;1172.93;116.13;;;1.70;99.90;;;;;;6224754;23;20527;-80
2022/01/21 03:46:00;;;;;;;956.40;91.60;;;1.70;99.90;;;;;;6223588;23;20441;-80
2022/01/21 03:48:29;;;;;;;958.33;97.57;;;1.80;99.90;;;;;;6223011;23;20414;-80
2022/01/21 03:50:58;;;;;;;1313.23;147.00;;;1.80;99.90;;;;;;6224518;23;20426;-79
2022/01/21 03:53:29;;;;;;;977.07;109.77;;;1.80;99.90;;;;;;6224588;23;20409;-80
2022/01/21 03:56:01;;;;;;;1176.57;96.00;;;1.80;99.90;;;;;;6224790;23;20910;-80
2022/01/21 03:58:30;;;;;;;1286.83;125.93;;;1.80;99.90;;;;;;6225580;23;20894;-80
2022/01/21 04:01:00;;;;;;;826.43;89.50;;;1.80;99.90;;;;;;6224209;23;20428;-80
2022/01/21 04:03:31;;;;;;;1367.07;150.03;;;1.80;99.90;;;;;;6224734;23;20510;-80
2022/01/21 04:06:00;;;;;;;1448.47;171.77;;;1.80;99.90;;;;;;6224649;23;20438;-79
2022/01/21 04:08:28;;;;;;;1170.93;106.03;;;1.80;99.90;;;;;;6224290;23;20426;-80
2022/01/21 04:11:04;;;;;;;1307.40;193.47;;;1.80;99.90;;;;;;6225369;23;20402;-79
2022/01/21 04:13:36;;;;;;;1136.87;134.67;;;1.80;99.90;;;;;;6225063;23;20410;-80
2022/01/21 04:16:07;;;;;;;1062.47;98.60;;;1.80;99.90;;;;;;6225207;23;20442;-80
2022/01/21 04:18:37;;;;;;;880.77;110.73;;;1.70;99.90;;;;;;6225037;23;20545;-80
2022/01/21 04:21:08;;;;;;;1013.60;117.77;;;1.80;99.90;;;;;;6224706;23;20448;-79
2022/01/21 04:23:37;;;;;;;712.93;53.60;;;1.70;99.90;;;;;;6225050;23;20831;-79
2022/01/21 04:26:08;;;;;;;971.33;119.13;;;1.70;99.90;;;;;;6223883;23;20975;-79
2022/01/21 04:28:37;;;;;;;1173.97;108.03;;;1.70;99.90;;;;;;6224118;23;20473;-79
2022/01/21 04:31:08;;;;;;;1971.40;205.50;;;1.70;99.90;;;;;;6224101;23;20411;-79
2022/01/21 04:33:50;;;;;;;1061.30;113.87;;;1.70;99.90;;;;;;6223645;23;20441;-80
2022/01/21 04:36:21;;;;;;;489.57;59.70;;;1.80;99.90;;;;;;6224612;23;20493;-79
2022/01/21 04:38:52;;;;;;;993.97;100.43;;;1.70;99.90;;;;;;6224537;23;20508;-80
2022/01/21 04:41:40;;;;;;;1406.20;156.20;;;1.80;99.90;;;;;;6224010;23;20410;-80
2022/01/21 04:49:37;;;;;;;1196.27;116.13;;;1.80;99.90;;;;;;6224400;23;20550;-79
2022/01/21 04:52:06;;;;;;;939.37;99.77;;;1.80;99.90;;;;;;6223763;23;20423;-79
2022/01/21 04:54:55;;;;;;;1613.00;174.37;;;1.80;99.90;;;;;;6223877;23;20403;-80
2022/01/21 04:57:32;;;;;;;1155.67;127.50;;;1.80;99.90;;;;;;6223864;23;20471;-80
2022/01/21 05:00:02;;;;;;;1186.87;127.93;;;1.80;99.90;;;;;;6225614;23;20413;-79
2022/01/21 05:02:33;;;;;;;1498.13;134.87;;;1.80;99.90;;;;;;6223721;23;20420;-79
2022/01/21 05:05:05;;;;;;;1562.90;150.37;;;1.90;99.90;;;;;;6224906;23;20445;-79
2022/01/21 05:07:37;;;;;;;835.53;109.63;;;1.90;99.90;;;;;;6222934;23;20436;-80
2022/01/21 05:10:08;;;;;;;1255.63;121.20;;;1.90;99.90;;;;;;6224253;23;20411;-80
2022/01/21 05:12:38;;;;;;;957.00;109.67;;;1.90;99.90;;;;;;6223120;23;20507;-80
2022/01/21 05:15:15;;;;;;;1087.47;128.23;;;1.90;99.90;;;;;;6223039;23;20423;-80
2022/01/21 05:17:48;;;;;;;1480.57;188.60;;;1.90;99.90;;;;;;6223477;23;20482;-79
2022/01/21 05:20:22;;;;;;;1903.47;198.20;;;1.90;99.90;;;;;;6224355;23;20408;-80
2022/01/21 05:23:06;;;;;;;405.10;52.77;;;1.90;99.90;;;;;;6223113;23;20415;-80
2022/01/21 05:25:35;;;;;;;1682.20;140.77;;;1.90;99.90;;;;;;6223532;23;20545;-80
2022/01/21 05:28:05;;;;;;;1837.07;169.27;;;1.90;99.90;;;;;;6223017;23;20500;-80
2022/01/21 05:30:45;;;;;;;1594.23;175.27;;;1.90;99.90;;;;;;6222714;23;20429;-80
2022/01/21 05:33:18;;;;;;;1141.73;107.13;;;1.90;99.90;;;;;;6224715;23;20408;-80
2022/01/21 05:36:18;;;;;;;909.03;99.57;;;1.90;99.90;;;;;;6224256;23;20521;-80
2022/01/21 05:39:13;;;;;;;852.53;87.97;;;1.90;99.90;;;;;;6222698;23;20437;-80
2022/01/21 05:41:53;;;;;;;1345.13;150.43;;;1.90;99.90;;;;;;6222287;23;20737;-80
2022/01/21 05:48:10;;;;;;;833.43;121.67;;;1.90;99.90;;;;;;6132473;23;20433;-80
2022/01/21 05:50:58;;;;;;;960.97;150.50;;;1.90;99.90;;;;;;6224369;23;20474;-80
2022/01/21 05:54:02;;;;;;;422.27;36.07;;;1.90;99.90;;;;;;6205169;23;20413;-80
2022/01/21 05:56:47;;;;;;;1400.17;143.30;;;2.00;99.90;;;;;;6222678;23;20434;-80
2022/01/21 05:59:43;;;;;;;1250.90;146.60;;;2.00;99.90;;;;;;6219738;23;20438;-80
2022/01/21 06:02:14;;;;;;;1999.90;250.27;;;2.00;99.90;;;;;;6222268;23;20911;-79
2022/01/21 06:04:46;;;;;;;1999.90;230.80;;;2.00;99.90;;;;;;6221996;23;20431;-80
2022/01/21 06:07:15;;;;;;;1701.30;164.80;;;2.00;99.90;;;;;;6221582;23;20470;-81
2022/01/21 06:09:47;;;;;;;1999.90;327.90;;;2.00;99.90;;;;;;6223433;23;20889;-80
2022/01/21 06:12:16;;;;;;;1953.87;238.27;;;2.00;99.90;;;;;;6222738;23;20451;-80
2022/01/21 06:14:47;;;;;;;1725.13;172.93;;;2.00;99.90;;;;;;6222386;23;20420;-80
2022/01/21 06:17:16;;;;;;;1767.67;184.93;;;2.10;99.90;;;;;;6222859;23;20438;-79
2022/01/21 06:19:45;;;;;;;1999.90;263.83;;;2.10;99.90;;;;;;6221577;23;20422;-79
2022/01/21 06:22:15;;;;;;;1999.90;277.90;;;2.10;99.90;;;;;;6220710;23;20976;-79
2022/01/21 06:24:45;;;;;;;1999.90;430.10;;;2.10;99.90;;;;;;6221502;23;20431;-79
2022/01/21 06:27:13;;;;;;;1979.30;226.23;;;2.10;99.90;;;;;;6221665;23;20457;-80
2022/01/21 06:29:42;;;;;;;1999.90;318.40;;;2.10;99.90;;;;;;6223884;23;20406;-80
2022/01/21 06:32:10;;;;;;;1999.90;436.90;;;2.10;99.90;;;;;;6223505;23;20426;-79
2022/01/21 06:34:39;;;;;;;1982.47;333.63;;;2.10;99.90;;;;;;6223222;23;20432;-79
2022/01/21 06:37:07;;;;;;;1999.90;353.67;;;2.10;99.90;;;;;;6222993;23;20447;-80
2022/01/21 06:39:36;;;;;;;1999.90;544.93;;;2.10;99.90;;;;;;6223029;23;20421;-80
2022/01/21 06:42:04;;;;;;;1999.90;695.40;;;2.10;99.90;;;;;;6222741;23;20418;-80
2022/01/21 06:44:33;;;;;;;1999.90;575.07;;;2.10;99.90;;;;;;6222211;23;20822;-80
2022/01/21 06:47:03;;;;;;;1999.90;526.30;;;2.10;99.90;;;;;;6223922;23;20434;-80
2022/01/21 06:49:31;;;;;;;1999.90;588.93;;;2.10;99.90;;;;;;6225201;23;20430;-80
2022/01/21 06:52:05;;;;;;;1999.90;574.17;;;2.10;99.90;;;;;;6223308;23;20422;-80
2022/01/21 06:54:52;;;;;;;;;;;;;;;;;;;;;
2022/01/21 06:57:24;;;;;;;1992.53;286.93;;;2.10;99.90;;;;;;6219308;23;20435;-80
2022/01/21 06:59:52;;;;;;;1999.90;612.43;;;2.10;99.90;;;;;;6223187;23;20451;-80
2022/01/21 07:02:20;;;;;;;1999.90;380.40;;;2.10;99.90;;;;;;6221851;23;20758;-80
2022/01/21 07:04:51;;;;;;;1999.90;714.67;;;2.10;99.90;;;;;;6221753;23;20461;-80
2022/01/21 07:07:22;;;;;;;1999.90;557.93;;;2.10;99.90;;;;;;6221240;23;20485;-80
2022/01/21 07:09:50;;;;;;;1999.90;629.70;;;2.10;99.90;;;;;;6221266;23;20433;-79
2022/01/21 07:12:21;;;;;;;1999.90;670.00;;;2.10;99.90;;;;;;6221339;23;20482;-79
2022/01/21 07:14:57;;;;;;;1999.90;383.10;;;2.10;99.90;;;;;;6221754;23;20412;-80
2022/01/21 07:28:53;;;;;;;1999.90;452.33;;;2.10;99.90;;;;;;5914583;24;20501;-80
2022/01/21 07:31:21;;;;;;;1999.90;637.17;;;2.10;99.90;;;;;;6103820;23;20764;-80
2022/01/21 07:33:50;;;;;;;1999.90;924.93;;;2.10;99.90;;;;;;6222665;23;20413;-80
2022/01/21 07:36:18;;;;;;;1999.90;515.77;;;2.10;99.90;;;;;;6225023;23;20510;-80
2022/01/21 07:38:48;;;;;;;1999.90;500.87;;;2.10;99.90;;;;;;6223747;23;20411;-79
2022/01/21 07:41:16;;;;;;;1999.90;748.47;;;2.20;99.90;;;;;;6222970;23;20419;-80
2022/01/21 07:43:44;;;;;;;1999.90;543.80;;;2.20;99.90;;;;;;6221617;23;20451;-80
2022/01/21 07:46:20;;;;;;;1999.90;838.77;;;2.10;99.90;;;;;;6222093;23;20806;-80
2022/01/21 07:48:49;;;;;;;1999.90;763.23;;;2.20;99.90;;;;;;6223311;23;20481;-79
2022/01/21 07:51:19;;;;;;;1999.90;818.50;;;2.30;99.90;;;;;;6222042;23;20411;-80
2022/01/21 07:53:47;;;;;;;1999.90;758.70;;;2.30;99.90;;;;;;6222183;23;20418;-80
2022/01/21 07:56:16;;;;;;;1999.90;892.17;;;2.30;99.90;;;;;;6222637;23;20442;-80
2022/01/21 07:58:45;;;;;;;1999.90;536.07;;;2.30;99.90;;;;;;6221765;23;20931;-80
2022/01/21 08:01:15;;;;;;;1999.90;825.47;;;2.30;99.90;;;;;;6221658;23;20419;-80
2022/01/21 08:03:44;;;;;;;1999.90;899.03;;;2.30;99.90;;;;;;6222550;23;20872;-80
2022/01/21 08:06:13;;;;;;;1999.90;816.97;;;2.40;99.90;;;;;;6221706;23;20956;-80
2022/01/21 08:08:42;;;;;;;1999.90;537.70;;;2.40;99.90;;;;;;6221308;23;20791;-80
2022/01/21 08:11:11;;;;;;;1999.90;668.23;;;2.40;99.90;;;;;;6232535;23;20406;-81
2022/01/21 08:13:39;;;;;;;1999.90;857.33;;;2.40;99.90;;;;;;6221261;23;20419;-80
2022/01/21 08:16:07;;;;;;;1999.90;781.70;;;2.50;99.90;;;;;;6223920;23;20427;-80
2022/01/21 08:18:37;;;;;;;1999.90;830.30;;;2.50;99.90;;;;;;6222003;23;20425;-80
2022/01/21 08:21:05;;;;;;;1999.90;731.53;;;2.50;99.90;;;;;;6222137;23;20481;-80
2022/01/21 08:23:35;;;;;;;1999.90;783.93;;;2.50;99.90;;;;;;6221391;23;20483;-79
2022/01/21 08:52:19;;;;;;;1999.90;919.40;;;2.80;99.90;;;;;;5905907;23;20408;-80
2022/01/21 08:54:48;;;;;;;1999.90;835.73;;;2.80;99.90;;;;;;6147642;23;20183;-80
2022/01/21 08:57:16;;;;;;;1999.90;921.53;;;2.80;99.90;;;;;;6143817;23;20443;-81
2022/01/21 08:59:46;;;;;;;1999.90;896.60;;;2.90;99.90;;;;;;6171136;23;20400;-80
2022/01/21 09:02:14;;;;;;;1999.90;738.53;;;2.90;99.90;;;;;;6161838;23;20427;-80
2022/01/21 09:04:42;;;;;;;1999.90;837.23;;;2.90;99.90;;;;;;6136821;23;20420;-80
2022/01/21 09:07:13;;;;;;;1999.90;874.47;;;2.90;99.90;;;;;;6220546;23;20509;-80
2022/01/21 09:09:41;;;;;;;1999.90;814.30;;;2.90;99.90;;;;;;6222003;23;20418;-80
2022/01/21 09:12:10;;;;;;;1999.90;826.67;;;3.00;99.90;;;;;;6221654;23;20419;-80
2022/01/21 09:14:38;;;;;;;1999.90;733.30;;;3.00;99.90;;;;;;6222196;23;20934;-80
2022/01/21 09:17:09;;;;;;;1999.90;746.93;;;3.00;99.90;;;;;;6221647;23;20439;-80
2022/01/21 09:19:37;;;;;;;1999.90;625.33;;;3.10;99.90;;;;;;6221711;23;20417;-81
2022/01/21 09:22:06;;;;;;;1999.90;763.37;;;3.10;99.90;;;;;;6233215;23;20409;-80
2022/01/21 09:24:39;;;;;;;1999.90;712.87;;;3.10;99.90;;;;;;6221652;23;20409;-80
2022/01/21 09:27:07;;;;;;;1999.90;774.10;;;3.20;99.90;;;;;;6220577;23;20464;-80
2022/01/21 09:29:36;;;;;;;1999.90;703.20;;;3.20;99.90;;;;;;6223337;23;20433;-80
2022/01/21 09:32:06;;;;;;;1999.90;785.53;;;3.20;99.90;;;;;;6221414;23;20423;-80
2022/01/21 09:34:34;;;;;;;1999.90;787.60;;;3.30;99.90;;;;;;6222578;23;20426;-80
2022/01/21 09:37:05;;;;;;;1999.90;787.47;;;3.30;99.90;;;;;;6221362;23;20557;-80
2022/01/21 09:39:33;;;;;;;1999.90;932.70;;;3.30;99.90;;;;;;6220894;23;20414;-80
2022/01/21 09:42:03;;;;;;;1999.90;620.37;;;3.30;99.90;;;;;;6220295;23;20418;-80
2022/01/21 09:44:38;;;;;;;1999.90;683.17;;;3.40;99.90;;;;;;6222083;23;20421;-80
2022/01/21 09:47:07;;;;;;;1999.90;695.60;;;3.40;99.90;;;;;;6231504;23;20941;-80
2022/01/21 09:49:41;;;;;;;1999.90;735.37;;;3.40;99.90;;;;;;6232127;23;20387;-80
2022/01/21 09:52:13;;;;;;;1999.90;671.77;;;3.50;99.90;;;;;;6220017;23;20513;-80
2022/01/21 09:54:46;;;;;;;1999.90;766.13;;;3.50;99.90;;;;;;6223280;23;20722;-81
2022/01/21 09:57:20;;;;;;;1999.90;728.60;;;3.50;99.90;;;;;;6221443;23;20430;-80
2022/01/21 09:59:49;;;;;;;1999.90;654.60;;;3.60;99.90;;;;;;6220847;23;20417;-80
2022/01/21 10:02:25;;;;;;;1999.90;655.77;;;3.60;99.90;;;;;;6222254;23;20411;-80
2022/01/21 10:04:56;;;;;;;1999.90;773.57;;;3.60;99.90;;;;;;6221666;23;20413;-80
2022/01/21 10:07:24;;;;;;;1999.90;712.90;;;3.60;99.90;;;;;;6222953;23;20442;-80
2022/01/21 10:09:54;;;;;;;1999.90;658.23;;;3.60;99.90;;;;;;6222596;23;20442;-81
2022/01/21 10:12:24;;;;;;;1999.90;737.80;;;3.70;99.90;;;;;;6235235;23;20419;-80
2022/01/21 10:14:54;;;;;;;1928.97;547.93;;;3.70;99.90;;;;;;6234536;23;20898;-80
2022/01/21 10:18:01;;;;;;;1999.90;641.40;;;3.70;99.90;;;;;;6223383;23;20941;-80
2022/01/21 10:20:40;;;;;;;1999.90;748.57;;;3.80;99.90;;;;;;6224864;23;20425;-80
2022/01/21 10:23:10;;;;;;;1993.63;589.10;;;3.80;99.90;;;;;;6223433;23;20415;-80
2022/01/21 10:25:41;;;;;;;1967.33;537.00;;;3.80;99.90;;;;;;6222787;23;20468;-81
2022/01/21 10:28:14;;;;;;;1961.73;583.47;;;3.90;99.90;;;;;;6223066;23;20500;-81
2022/01/21 10:30:42;;;;;;;1999.90;660.90;;;3.90;99.90;;;;;;6223381;23;20409;-80
2022/01/21 10:33:23;;;;;;;1922.43;539.70;;;3.90;99.90;;;;;;6222716;23;20455;-80
2022/01/21 10:36:05;;;;;;;1999.90;617.33;;;3.90;99.90;;;;;;6222658;23;20460;-81
2022/01/21 10:38:41;;;;;;;1942.50;558.70;;;4.00;99.90;;;;;;6223283;23;20742;-80
2022/01/21 10:41:10;;;;;;;1944.67;588.17;;;4.00;99.90;;;;;;6222615;23;20511;-80
2022/01/21 10:43:40;;;;;;;1418.23;347.47;;;4.00;99.90;;;;;;6223332;23;20444;-80
2022/01/21 10:46:13;;;;;;;1914.13;587.40;;;4.10;99.90;;;;;;6222771;23;20437;-80
2022/01/21 10:49:03;;;;;;;1969.70;537.50;;;4.10;99.90;;;;;;6235241;23;20448;-80
2022/01/21 10:51:37;;;;;;;1999.90;624.47;;;4.10;99.90;;;;;;6236746;23;20414;-81
2022/01/21 10:54:15;;;;;;;1891.80;520.50;;;4.20;99.90;;;;;;6229998;23;20417;-80
2022/01/21 10:57:03;;;;;;;1870.10;523.50;;;4.20;99.90;;;;;;6222371;23;20821;-80
2022/01/21 10:59:47;;;;;;;1897.53;493.40;;;4.20;99.90;;;;;;6234386;23;20412;-80
2022/01/21 11:02:16;;;;;;;1798.67;476.70;;;4.30;99.90;;;;;;6223577;23;20455;-80
2022/01/21 11:04:44;;;;;;;655.10;173.17;;;4.30;99.90;;;;;;6223030;23;20461;-81
2022/01/21 11:07:15;;;;;;;1554.60;380.73;;;4.30;99.90;;;;;;6223003;23;20469;-80
2022/01/21 11:09:52;;;;;;;1632.60;443.53;;;4.30;99.90;;;;;;6222494;23;20445;-80
2022/01/21 11:12:22;;;;;;;1433.03;418.13;;;4.40;99.90;;;;;;6223385;23;20414;-80
2022/01/21 11:14:58;;;;;;;1464.70;370.33;;;4.40;99.90;;;;;;6222292;23;20414;-80
2022/01/21 11:17:27;;;;;;;1459.30;364.77;;;4.50;99.90;;;;;;6222137;23;20770;-80
2022/01/21 11:20:02;;;;;;;997.70;257.47;;;4.40;99.90;;;;;;6222798;23;20409;-80
2022/01/21 11:22:31;;;;;;;1569.50;381.53;;;4.50;99.90;;;;;;6222462;23;20437;-80
2022/01/21 11:25:00;;;;;;;783.73;223.80;;;4.60;99.90;;;;;;6222908;23;20448;-80
2022/01/21 11:27:29;;;;;;;503.07;140.10;;;4.60;99.90;;;;;;6223148;23;20462;-80
2022/01/21 11:30:10;;;;;;;;;;;;;;;;;;;;;
2022/01/21 11:54:37;;;;;;;1999.90;636.27;;;4.80;99.90;;;;;;6042293;23;20429;-80
2022/01/21 11:57:06;;;;;;;1628.50;397.67;;;4.90;99.90;;;;;;6112338;23;20423;-80
2022/01/21 11:59:47;;;;;;;597.93;166.60;;;4.90;99.90;;;;;;6221186;23;20411;-81
2022/01/21 12:02:24;;;;;;;284.47;47.13;;;4.90;99.90;;;;;;6222366;23;20490;-80
2022/01/21 12:04:54;;;;;;;501.27;122.87;;;5.00;99.90;;;;;;6221864;23;20924;-81
2022/01/21 12:07:45;;;;;;;395.33;43.73;;;5.00;99.90;;;;;;6220282;23;20446;-80
2022/01/21 12:10:20;;;;;;;188.43;28.50;;;5.10;99.90;;;;;;6220891;23;20438;-80
2022/01/21 12:13:04;;;;;;;319.87;46.63;;;5.10;99.90;;;;;;6222330;23;20751;-80
2022/01/21 12:15:56;;;;;;;213.50;26.43;;;5.20;99.90;;;;;;6224025;23;20410;-81
2022/01/21 12:19:11;;;;;;;416.73;123.73;;;5.20;99.90;;;;;;6221321;23;20425;-80
2022/01/21 12:21:45;;;;;;;270.13;49.47;;;5.30;99.90;;;;;;6221429;23;20418;-80
2022/01/21 12:24:16;;;;;;;197.53;22.60;;;5.30;99.90;;;;;;6233336;23;20379;-81
2022/01/21 12:27:02;;;;;;;262.53;34.50;;;5.30;99.90;;;;;;6221820;23;20442;-80
2022/01/21 12:29:30;;;;;;;356.37;37.00;;;5.40;99.90;;;;;;6221620;23;20434;-81
2022/01/21 12:32:14;;;;;;;213.47;35.17;;;5.40;99.90;;;;;;6221891;23;20422;-81
2022/01/21 12:43:40;;;;;;;1999.90;999.90;;;5.50;99.90;;;;;;5965490;23;20430;-81
2022/01/21 12:46:11;;;;;;;226.57;48.37;;;5.60;99.90;;;;;;6131178;23;20431;-80
2022/01/21 12:48:40;;;;;;;340.03;36.80;;;5.60;99.90;;;;;;6106384;23;20453;-80
2022/01/21 12:52:11;;;;;;;373.77;44.07;;;5.60;99.90;;;;;;6054110;23;20431;-81
2022/01/21 12:57:27;;;;;;;232.13;33.37;;;5.70;99.90;;;;;;6107038;23;20520;-81
2022/01/21 13:00:00;;;;;;;337.43;31.87;;;5.70;99.90;;;;;;6144434;23;20449;-81
2022/01/21 13:02:32;;;;;;;527.33;57.30;;;5.70;99.90;;;;;;6118761;23;20413;-80
2022/01/21 13:05:13;;;;;;;269.13;41.57;;;5.70;99.90;;;;;;6136617;23;20413;-80
2022/01/21 13:08:05;;;;;;;285.73;31.13;;;5.70;99.90;;;;;;6106795;23;20456;-81
2022/01/21 13:10:37;;;;;;;292.17;46.93;;;5.70;99.90;;;;;;6223520;23;20387;-80
2022/01/21 13:13:21;;;;;;;266.30;36.10;;;5.70;99.90;;;;;;6222011;23;20446;-80
2022/01/21 13:15:55;;;;;;;307.07;37.93;;;5.70;99.90;;;;;;6222156;23;20505;-81
2022/01/21 13:18:25;;;;;;;325.27;50.23;;;5.70;99.90;;;;;;6234044;23;20375;-80
2022/01/21 13:20:56;;;;;;;375.53;48.03;;;5.70;99.90;;;;;;6233531;23;20395;-80
2022/01/21 13:23:32;;;;;;;194.07;28.47;;;5.80;99.90;;;;;;6222007;23;20418;-80
2022/01/21 13:26:17;;;;;;;393.83;40.50;;;5.70;99.90;;;;;;6234733;23;20723;-81
2022/01/21 13:29:01;;;;;;;233.23;28.43;;;5.80;99.90;;;;;;6221473;23;20464;-80
2022/01/21 13:31:32;;;;;;;133.17;32.50;;;5.80;99.90;;;;;;6221956;23;20434;-81
2022/01/21 13:34:09;;;;;;;158.27;22.63;;;5.80;99.90;;;;;;6233783;23;20383;-81
2022/01/21 13:36:45;;;;;;;315.03;39.30;;;5.80;99.90;;;;;;6246806;22;20909;-80
2022/01/21 13:39:16;;;;;;;353.70;55.37;;;5.80;99.90;;;;;;6221895;23;20438;-80
2022/01/21 13:41:49;;;;;;;272.67;31.60;;;5.80;99.90;;;;;;6223166;23;20749;-80
2022/01/21 13:44:32;;;;;;;283.57;45.57;;;5.80;99.90;;;;;;6223823;23;20413;-80
2022/01/21 13:47:05;;;;;;;270.03;29.60;;;5.80;99.90;;;;;;6223589;23;20438;-81
2022/01/21 13:49:34;;;;;;;193.70;30.00;;;5.80;99.90;;;;;;6225043;23;20454;-80
2022/01/21 13:52:05;;;;;;;329.23;38.43;;;5.80;99.90;;;;;;6223486;23;20422;-81
2022/01/21 13:54:43;;;;;;;429.60;54.43;;;5.80;99.90;;;;;;6223681;23;20418;-80
2022/01/21 13:57:11;;;;;;;357.73;51.43;;;5.80;99.90;;;;;;6223688;23;20438;-80
2022/01/21 13:59:42;;;;;;;262.30;41.03;;;5.80;99.90;;;;;;6223366;23;20418;-80
2022/01/21 14:02:13;;;;;;;330.87;32.87;;;5.90;99.90;;;;;;6223918;23;20430;-80
2022/01/21 14:04:54;;;;;;;239.47;41.17;;;5.80;99.90;;;;;;6223849;23;20418;-80
2022/01/21 14:07:30;;;;;;;356.10;39.60;;;5.90;99.90;;;;;;6223868;23;20505;-80
2022/01/21 14:10:07;;;;;;;129.57;21.43;;;5.80;99.90;;;;;;6223612;23;20434;-81
2022/01/21 14:12:45;;;;;;;251.83;30.23;;;5.80;99.90;;;;;;6223393;23;20414;-81
2022/01/21 14:15:14;;;;;;;403.63;45.23;;;5.80;99.90;;;;;;6223902;23;20410;-80
2022/01/21 14:17:44;;;;;;;241.57;29.33;;;5.80;99.90;;;;;;6223431;23;20494;-81
2022/01/21 14:20:21;;;;;;;308.93;44.17;;;5.80;99.90;;;;;;6222801;23;20426;-81
2022/01/21 14:22:49;;;;;;;294.50;30.70;;;5.80;99.90;;;;;;6222661;23;20452;-81
2022/01/21 14:25:25;;;;;;;95.20;14.57;;;5.80;99.90;;;;;;6221113;23;20409;-81
2022/01/21 14:27:58;;;;;;;82.93;13.50;;;5.90;99.90;;;;;;6220324;23;20434;-81
2022/01/21 14:30:26;;;;;;;56.60;13.23;;;5.90;99.90;;;;;;6221525;23;20430;-81
2022/01/21 14:32:57;;;;;;;287.20;27.00;;;5.90;99.90;;;;;;6220986;23;20418;-81
2022/01/21 14:35:29;;;;;;;195.13;34.00;;;5.90;99.90;;;;;;6221326;23;20402;-81
2022/01/21 14:38:04;;;;;;;285.70;34.13;;;5.90;99.90;;;;;;6222107;23;20422;-81
2022/01/21 14:40:36;;;;;;;204.23;27.03;;;5.90;99.90;;;;;;6224352;23;20429;-81
2022/01/21 14:43:06;;;;;;;89.57;15.53;;;5.90;99.90;;;;;;6223828;23;20441;-81